createdAt,value
2018-07-12T00:00:18.052Z,73.40
2018-07-12T00:05:19.471Z,73.20
2018-07-12T00:10:20.883Z,74.00
2018-07-12T00:15:22.304Z,75.00
2018-07-12T00:20:23.748Z,75.10
2018-07-12T00:25:25.184Z,75.60
2018-07-12T00:30:26.623Z,75.20
2018-07-12T00:35:28.111Z,75.00
2018-07-12T00:40:29.519Z,74.90
2018-07-12T00:45:31.147Z,74.60
2018-07-12T00:50:32.827Z,74.50
2018-07-12T00:55:34.242Z,74.80
2018-07-12T01:00:35.656Z,74.50
2018-07-12T01:05:37.148Z,74.00
2018-07-12T01:10:38.579Z,76.00
2018-07-12T01:15:40.355Z,78.40
2018-07-12T01:20:41.776Z,77.20
2018-07-12T01:25:43.217Z,77.00
2018-07-12T01:30:44.642Z,76.90
2018-07-12T01:35:46.103Z,76.40
2018-07-12T01:40:47.537Z,77.30
2018-07-12T01:45:49.170Z,77.10
2018-07-12T01:50:50.591Z,74.40
2018-07-12T01:55:52.031Z,76.40
2018-07-12T02:00:53.603Z,76.20
2018-07-12T02:10:57.125Z,77.40
2018-07-12T02:15:58.800Z,77.10
2018-07-12T02:21:00.271Z,78.00
2018-07-12T02:26:01.703Z,77.30
2018-07-12T02:31:03.124Z,77.90
2018-07-12T02:36:04.552Z,78.00
2018-07-12T02:41:06.182Z,78.50
2018-07-12T02:46:07.608Z,78.20
2018-07-12T02:51:09.064Z,77.70
2018-07-12T02:56:10.503Z,76.60
2018-07-12T03:01:12.104Z,75.60
2018-07-12T03:06:13.679Z,75.20
2018-07-12T03:11:15.367Z,75.40
2018-07-12T03:16:16.789Z,76.00
2018-07-12T03:21:18.402Z,76.50
2018-07-12T03:26:20.303Z,76.30
2018-07-12T03:31:21.932Z,76.10
2018-07-12T03:36:23.352Z,75.30
2018-07-12T03:41:24.760Z,74.50
2018-07-12T03:46:26.181Z,73.60
2018-07-12T03:56:29.463Z,75.00
2018-07-12T04:01:30.883Z,75.40
2018-07-12T04:11:34.604Z,75.90
2018-07-12T04:16:36.037Z,75.00
2018-07-12T04:21:37.452Z,73.70
2018-07-12T04:26:39.116Z,73.50
2018-07-12T04:31:40.679Z,73.10
2018-07-12T04:36:42.251Z,72.90
2018-07-12T04:41:43.676Z,70.60
2018-07-12T04:46:45.252Z,70.30
2018-07-12T04:51:46.867Z,70.30
2018-07-12T04:56:48.635Z,72.20
2018-07-12T05:01:50.307Z,70.70
2018-07-12T05:06:51.860Z,68.70
2018-07-12T05:11:53.564Z,64.00
2018-07-12T05:16:55.223Z,57.20
2018-07-12T05:21:56.673Z,56.70
2018-07-12T05:26:58.263Z,59.00
2018-07-12T05:31:59.936Z,59.30
2018-07-12T05:37:03.181Z,56.00
2018-07-12T05:42:06.348Z,44.50
2018-07-12T05:47:09.369Z,38.50
2018-07-12T05:52:12.568Z,43.80
2018-07-12T05:57:15.608Z,49.00
2018-07-12T06:02:21.972Z,52.60
2018-07-12T06:07:29.444Z,52.90
2018-07-12T06:12:32.440Z,52.90
2018-07-12T06:17:35.408Z,52.70
2018-07-12T06:22:38.689Z,52.30
2018-07-12T06:27:41.685Z,52.40
2018-07-12T06:32:44.981Z,52.70
2018-07-12T06:37:48.196Z,53.60
2018-07-12T06:42:51.192Z,51.60
2018-07-12T06:47:54.219Z,52.70
2018-07-12T06:52:57.300Z,49.50
2018-07-12T06:58:00.696Z,48.90
2018-07-12T07:03:03.900Z,39.70
2018-07-12T07:08:06.881Z,33.10
2018-07-12T07:13:09.888Z,30.80
2018-07-12T07:18:12.951Z,35.40
2018-07-12T07:23:16.220Z,31.00
2018-07-12T07:28:19.213Z,33.00
2018-07-12T07:33:22.317Z,33.40
2018-07-12T07:38:25.340Z,35.80
2018-07-12T07:43:28.307Z,34.10
2018-07-12T07:48:31.507Z,34.50
2018-07-12T07:53:34.532Z,32.60
2018-07-12T07:58:37.515Z,30.20
2018-07-12T08:03:40.507Z,33.80
2018-07-12T08:08:43.504Z,31.70
2018-07-12T08:13:46.475Z,31.30
2018-07-12T08:18:49.432Z,36.10
2018-07-12T08:23:52.456Z,33.70
2018-07-12T08:28:55.461Z,33.00
2018-07-12T08:33:58.627Z,31.00
2018-07-12T08:39:01.632Z,28.90
2018-07-12T08:44:04.795Z,31.80
2018-07-12T08:49:07.789Z,31.50
2018-07-12T08:54:10.831Z,33.90
2018-07-12T08:59:13.967Z,27.10
2018-07-12T09:04:17.167Z,21.80
2018-07-12T09:09:20.181Z,26.20
2018-07-12T09:14:23.175Z,24.30
2018-07-12T09:19:26.379Z,23.70
2018-07-12T09:24:29.358Z,26.90
2018-07-12T09:29:32.352Z,27.40
2018-07-12T09:34:35.531Z,27.40
2018-07-12T09:39:38.530Z,25.10
2018-07-12T09:44:41.544Z,25.10
2018-07-12T09:49:44.713Z,23.20
2018-07-12T09:54:47.994Z,20.90
2018-07-12T09:59:50.946Z,22.90
2018-07-12T10:04:54.249Z,20.70
2018-07-12T10:09:57.612Z,17.40
2018-07-12T10:15:06.411Z,18.00
2018-07-12T10:25:12.496Z,18.80
2018-07-12T10:30:15.520Z,17.10
2018-07-12T10:35:18.523Z,20.80
2018-07-12T10:40:21.715Z,20.80
2018-07-12T10:45:25.136Z,19.20
2018-07-12T10:50:28.332Z,15.70
2018-07-12T10:55:31.554Z,14.10
2018-07-12T11:00:34.680Z,15.20
2018-07-12T11:05:37.725Z,14.70
2018-07-12T11:10:41.671Z,18.10
2018-07-12T11:15:45.700Z,19.60
2018-07-12T11:20:48.991Z,17.20
2018-07-12T11:25:52.240Z,15.40
2018-07-12T11:30:55.268Z,15.80
2018-07-12T11:35:58.231Z,14.80
2018-07-12T11:41:02.175Z,14.80
2018-07-12T11:46:06.763Z,15.50
2018-07-12T11:51:09.803Z,18.80
2018-07-12T11:56:12.940Z,17.20
2018-07-12T12:01:16.065Z,17.80
2018-07-12T12:06:19.174Z,17.20
2018-07-12T12:11:22.212Z,14.90
2018-07-12T12:16:25.216Z,11.90
2018-07-12T12:21:28.252Z,10.90
2018-07-12T12:26:31.271Z,15.90
2018-07-12T12:31:34.313Z,15.20
2018-07-12T12:36:37.331Z,16.00
2018-07-12T12:41:40.341Z,13.50
2018-07-12T12:46:43.389Z,13.60
2018-07-12T12:51:46.571Z,13.60
2018-07-12T12:56:49.540Z,14.80
2018-07-12T13:01:52.706Z,11.80
2018-07-12T13:06:55.892Z,12.60
2018-07-12T13:11:59.147Z,10.20
2018-07-12T13:17:02.323Z,8.90
2018-07-12T13:22:05.622Z,9.50
2018-07-12T13:27:08.688Z,13.30
2018-07-12T13:32:11.772Z,9.60
2018-07-12T13:37:14.917Z,12.10
2018-07-12T13:42:18.263Z,11.90
2018-07-12T13:47:21.257Z,11.60
2018-07-12T13:52:24.268Z,9.00
2018-07-12T13:57:27.584Z,9.00
2018-07-12T14:02:30.809Z,8.50
2018-07-12T14:07:34.061Z,9.00
2018-07-12T14:12:37.299Z,9.60
2018-07-12T14:17:40.325Z,9.00
2018-07-12T14:22:43.353Z,9.50
2018-07-12T14:27:46.512Z,9.40
2018-07-12T14:32:49.711Z,11.10
2018-07-12T14:37:52.711Z,8.20
2018-07-12T14:42:55.938Z,8.10
2018-07-12T14:47:59.077Z,7.70
2018-07-12T14:53:02.273Z,8.10
2018-07-12T14:58:05.424Z,7.80
2018-07-12T15:03:08.705Z,7.60
2018-07-12T15:08:12.014Z,7.20
2018-07-12T15:18:17.935Z,7.10
2018-07-12T15:23:20.948Z,7.70
2018-07-12T15:28:23.954Z,7.80
2018-07-12T15:33:26.980Z,8.50
2018-07-12T15:38:29.992Z,7.20
2018-07-12T15:43:33.110Z,6.20
2018-07-12T15:48:36.212Z,6.80
2018-07-12T15:53:39.219Z,7.10
2018-07-12T15:58:42.248Z,6.00
2018-07-12T16:08:48.152Z,4.40
2018-07-12T16:13:51.131Z,4.20
2018-07-12T16:18:54.384Z,4.40
2018-07-12T16:23:57.442Z,4.50
2018-07-12T16:29:00.391Z,4.60
2018-07-12T16:34:03.486Z,4.50
2018-07-12T16:39:07.404Z,5.00
2018-07-12T16:44:10.404Z,5.40
2018-07-12T16:49:13.599Z,5.20
2018-07-12T16:54:16.643Z,5.00
2018-07-12T16:59:19.823Z,5.00
2018-07-12T17:04:23.432Z,5.60
2018-07-12T17:09:26.464Z,5.60
2018-07-12T17:14:29.512Z,4.80
2018-07-12T17:19:32.529Z,5.30
2018-07-12T17:24:35.528Z,5.40
2018-07-12T17:29:38.647Z,5.20
2018-07-12T17:34:41.904Z,5.60
2018-07-12T17:39:44.892Z,8.40
2018-07-12T17:49:50.959Z,6.30
2018-07-12T17:54:53.975Z,6.30
2018-07-12T17:59:57.196Z,6.70
2018-07-12T18:05:00.419Z,6.80
2018-07-12T18:10:03.531Z,7.30
2018-07-12T18:15:06.762Z,8.10
2018-07-12T18:20:10.129Z,10.90
2018-07-12T18:25:13.357Z,10.90
2018-07-12T18:30:16.656Z,11.70
2018-07-12T18:35:19.746Z,12.30
2018-07-12T18:40:22.692Z,11.20
2018-07-12T18:45:25.735Z,12.00
2018-07-12T18:50:28.792Z,11.60
2018-07-12T18:55:32.089Z,11.60
2018-07-12T19:00:35.115Z,12.70
2018-07-12T19:10:41.418Z,15.80
2018-07-12T19:15:44.395Z,17.50
2018-07-12T19:20:47.514Z,18.90
2018-07-12T19:25:50.580Z,18.40
2018-07-12T19:30:53.834Z,18.70
2018-07-12T19:35:56.953Z,18.50
2018-07-12T19:41:00.379Z,19.00
2018-07-12T19:46:03.456Z,19.10
2018-07-12T19:51:06.636Z,20.00
2018-07-12T19:56:09.867Z,21.00
2018-07-12T20:01:12.927Z,21.60
2018-07-12T20:06:15.968Z,23.10
2018-07-12T20:11:18.996Z,22.10
2018-07-12T20:16:22.284Z,22.50
2018-07-12T20:21:25.485Z,23.40
2018-07-12T20:26:28.532Z,28.80
2018-07-12T20:31:31.667Z,32.40
2018-07-12T20:36:34.891Z,35.10
2018-07-12T20:41:38.009Z,36.90
2018-07-12T20:46:41.304Z,35.90
2018-07-12T20:51:44.343Z,35.20
2018-07-12T20:56:47.460Z,36.30
2018-07-12T21:01:50.663Z,37.20
2018-07-12T21:06:53.668Z,37.00
2018-07-12T21:11:56.869Z,36.60
2018-07-12T21:16:59.979Z,37.50
2018-07-12T21:22:03.183Z,38.70
2018-07-12T21:27:06.199Z,38.70
2018-07-12T21:32:09.364Z,39.20
2018-07-12T21:37:12.481Z,39.60
2018-07-12T21:42:15.505Z,40.50
2018-07-12T21:47:18.720Z,40.70
2018-07-12T21:52:21.884Z,41.60
2018-07-12T21:57:25.145Z,42.50
2018-07-12T22:02:28.251Z,43.30
2018-07-12T22:07:50.983Z,43.40
2018-07-12T22:12:53.956Z,43.70
2018-07-12T22:17:57.421Z,46.30
2018-07-12T22:23:00.897Z,47.90
2018-07-12T22:28:03.954Z,50.70
2018-07-12T22:33:07.092Z,51.10
2018-07-12T22:38:10.103Z,50.50
2018-07-12T22:43:13.138Z,51.10
2018-07-12T22:48:16.256Z,51.70
2018-07-12T22:53:19.479Z,51.60
2018-07-12T22:58:22.491Z,52.00
2018-07-12T23:03:25.681Z,51.90
2018-07-12T23:08:28.727Z,52.20
2018-07-12T23:13:31.995Z,51.80
2018-07-12T23:18:35.217Z,50.30
2018-07-12T23:23:38.191Z,50.30
2018-07-12T23:28:41.200Z,50.80
2018-07-12T23:33:44.428Z,51.20
2018-07-12T23:38:47.380Z,50.70
2018-07-12T23:43:50.943Z,54.10
2018-07-12T23:48:53.937Z,55.40
2018-07-12T23:53:56.933Z,54.10
2018-07-12T23:58:59.945Z,52.70
